Terminal Aerodrome Forecast
Issued by NWS

Home | Current Version | Previous Version | Text Only | Print | Product List | Glossary On
Versions: 1 2 3 4 5 6 7 8 9 10 11 12 13 14
000
FTUS45 KRIW 060500
TAFRKS
TAF
KRKS 060529Z 0606/0706 26008KT P6SM VCSH SCT050 BKN080
     FM061100 30007KT P6SM BKN080
     FM061600 29008KT P6SM SCT070
     FM070000 08012KT P6SM VCSH BKN060
     FM070300 07015KT P6SM -SHRA BKN030=

USA.gov is the U.S. government's official web portal to all federal, state and local government web resources and services.